Time;durP1;ratioP1;P1;durP2;ratioP2;P2;SDS_P1;SDS_P2;PMS_P1;PMS_P2;Temp;Humidity;BMP_temperature;BMP_pressure;BME280_temperature;BME280_humidity;BME280_pressure;Samples;Min_cycle;Max_cycle;Signal;HPM_P1;HPM_P2
2021/08/07 00:09:35;;;;;;;2.47;1.30;;;17.20;99.90;;;;;;6723263;88;20648;-76
2021/08/07 00:19:36;;;;;;;4.45;1.30;;;17.00;99.90;;;;;;6730144;88;20189;-75
2021/08/07 00:29:37;;;;;;;1.92;1.30;;;17.00;99.90;;;;;;6719964;88;20881;-75
2021/08/07 00:39:37;;;;;;;3.78;1.23;;;17.00;99.90;;;;;;6716549;88;20319;-75
2021/08/07 00:49:38;;;;;;;2.22;1.33;;;17.00;99.90;;;;;;6715178;88;20211;-77
2021/08/07 00:59:39;;;;;;;3.30;1.07;;;16.80;99.90;;;;;;6714828;88;20838;-76
2021/08/07 01:09:51;;;;;;;4.30;1.17;;;16.60;99.90;;;;;;6710978;88;20575;-77
2021/08/07 01:20:00;;;;;;;3.33;1.30;;;16.60;99.90;;;;;;6714448;88;20193;-77
2021/08/07 01:30:02;;;;;;;2.60;1.23;;;16.90;99.90;;;;;;6710600;88;20186;-77
2021/08/07 01:40:03;;;;;;;3.33;1.42;;;16.60;99.90;;;;;;6710278;88;21011;-76
2021/08/07 01:50:16;;;;;;;2.00;1.20;;;16.70;99.90;;;;;;6714052;88;20293;-76
2021/08/07 02:00:20;;;;;;;3.80;1.27;;;16.50;99.90;;;;;;6714375;88;20197;-76
2021/08/07 02:10:21;;;;;;;3.25;1.10;;;16.30;99.90;;;;;;6714772;88;20224;-76
2021/08/07 02:20:21;;;;;;;2.58;1.30;;;16.20;99.90;;;;;;6713745;88;20328;-75
2021/08/07 02:30:22;;;;;;;3.40;1.33;;;16.20;99.90;;;;;;6713469;88;20251;-77
2021/08/07 02:40:23;;;;;;;3.20;1.08;;;16.10;99.90;;;;;;6720071;77;20547;-76
2021/08/07 02:50:24;;;;;;;5.75;2.75;;;16.10;99.90;;;;;;6738619;88;20284;-78
2021/08/07 03:00:24;;;;;;;4.20;1.60;;;16.00;99.90;;;;;;6734355;88;20663;-76
2021/08/07 03:10:25;;;;;;;3.50;1.53;;;15.80;99.90;;;;;;6734442;88;20196;-77
2021/08/07 03:20:32;;;;;;;4.97;1.37;;;15.70;99.90;;;;;;6734831;88;21026;-78
2021/08/07 03:30:33;;;;;;;6.60;1.90;;;15.60;99.90;;;;;;6735469;88;20191;-77
2021/08/07 03:40:33;;;;;;;4.80;1.70;;;15.60;99.90;;;;;;6735132;88;20318;-78
2021/08/07 03:50:34;;;;;;;2.23;1.30;;;15.50;99.90;;;;;;6734460;88;20187;-77
2021/08/07 04:00:36;;;;;;;2.33;1.30;;;15.60;99.90;;;;;;6734736;88;20633;-77
2021/08/07 04:10:38;;;;;;;3.37;1.50;;;15.80;99.90;;;;;;6735835;88;20618;-77
2021/08/07 04:20:38;;;;;;;3.95;1.25;;;15.90;99.90;;;;;;6735482;88;20640;-77
2021/08/07 04:30:39;;;;;;;2.10;1.10;;;16.00;99.90;;;;;;6752016;88;20196;-77
2021/08/07 04:40:39;;;;;;;4.45;1.20;;;16.00;99.90;;;;;;6734311;88;20721;-77
2021/08/07 04:50:40;;;;;;;4.03;1.40;;;16.10;99.90;;;;;;6733796;88;20626;-77
2021/08/07 05:00:41;;;;;;;2.37;1.30;;;16.20;99.90;;;;;;6736700;88;20211;-76
2021/08/07 05:10:43;;;;;;;2.28;1.20;;;16.30;99.90;;;;;;6736800;88;20217;-77
2021/08/07 05:20:43;;;;;;;4.53;1.30;;;16.40;99.90;;;;;;6737141;88;20222;-77
2021/08/07 05:30:44;;;;;;;2.87;1.12;;;16.50;99.90;;;;;;6737228;88;20189;-78
2021/08/07 05:40:44;;;;;;;2.87;1.20;;;16.60;99.90;;;;;;6736611;88;20323;-76
2021/08/07 05:50:45;;;;;;;5.37;1.20;;;16.80;99.90;;;;;;6735938;88;20209;-77
2021/08/07 06:00:45;;;;;;;3.83;1.48;;;17.00;99.90;;;;;;6732765;88;20553;-77
2021/08/07 06:10:46;;;;;;;2.58;1.20;;;17.10;99.90;;;;;;6736943;88;20231;-76
2021/08/07 06:20:47;;;;;;;3.83;1.23;;;17.50;99.90;;;;;;6736186;88;20192;-77
2021/08/07 06:30:47;;;;;;;3.47;1.30;;;17.90;99.90;;;;;;6735694;88;20628;-78
2021/08/07 06:40:48;;;;;;;6.10;1.45;;;18.10;99.90;;;;;;6735675;88;20331;-78
2021/08/07 06:50:49;;;;;;;3.87;1.15;;;18.30;99.90;;;;;;6736986;88;20330;-77
2021/08/07 07:00:49;;;;;;;2.75;1.35;;;18.30;99.90;;;;;;6729328;88;20244;-77
2021/08/07 07:10:50;;;;;;;5.45;1.55;;;18.50;99.90;;;;;;6734863;88;20209;-77
2021/08/07 07:20:51;;;;;;;4.68;1.20;;;18.70;99.90;;;;;;6736222;88;20224;-78
2021/08/07 07:30:51;;;;;;;2.97;1.20;;;18.90;99.90;;;;;;6727295;88;20710;-78
2021/08/07 07:40:52;;;;;;;2.42;1.15;;;19.10;99.90;;;;;;6731723;88;20711;-77
2021/08/07 07:50:53;;;;;;;5.25;1.33;;;19.70;99.90;;;;;;6733834;88;20767;-77
2021/08/07 08:00:53;;;;;;;2.27;1.20;;;20.30;99.90;;;;;;6733428;88;20654;-77
2021/08/07 08:10:54;;;;;;;3.45;1.30;;;20.60;99.90;;;;;;6734523;88;20204;-76
2021/08/07 08:20:54;;;;;;;8.30;1.40;;;21.10;99.90;;;;;;6737919;88;20192;-77
2021/08/07 08:30:55;;;;;;;4.55;1.30;;;21.60;99.90;;;;;;6738212;88;20675;-78
2021/08/07 08:40:58;;;;;;;4.45;1.10;;;22.60;99.90;;;;;;6739120;77;20313;-76
2021/08/07 08:50:59;;;;;;;4.95;1.15;;;23.00;99.90;;;;;;6715391;88;20699;-75
2021/08/07 09:01:00;;;;;;;4.03;1.12;;;22.00;99.90;;;;;;6715113;88;20737;-78
2021/08/07 09:11:22;;;;;;;4.12;1.27;;;21.60;99.90;;;;;;6717962;88;20606;-78
2021/08/07 09:21:22;;;;;;;4.37;1.10;;;22.30;99.90;;;;;;6721844;88;20212;-78
2021/08/07 09:31:24;;;;;;;6.95;1.10;;;21.80;99.90;;;;;;6722614;88;20190;-75
2021/08/07 09:41:25;;;;;;;4.10;0.90;;;22.30;99.90;;;;;;6716346;88;20652;-77
2021/08/07 09:51:33;;;;;;;2.78;0.95;;;22.50;99.90;;;;;;6715256;88;20199;-77
2021/08/07 10:01:35;;;;;;;2.40;0.90;;;23.00;99.90;;;;;;6716393;88;20235;-75
2021/08/07 10:11:36;;;;;;;4.93;1.10;;;22.60;99.90;;;;;;6715273;88;20176;-77
2021/08/07 10:21:36;;;;;;;4.18;1.10;;;22.80;99.90;;;;;;6715333;88;20188;-77
2021/08/07 10:31:38;;;;;;;5.60;1.00;;;23.20;99.90;;;;;;6715522;88;20222;-78
2021/08/07 10:41:39;;;;;;;4.93;1.12;;;22.70;99.90;;;;;;6715103;88;20701;-77
2021/08/07 10:51:41;;;;;;;4.18;1.08;;;22.10;99.90;;;;;;6712056;88;20246;-76
2021/08/07 11:01:43;;;;;;;5.40;1.23;;;21.80;99.90;;;;;;6722740;88;20725;-78
2021/08/07 11:11:44;;;;;;;2.10;0.70;;;21.40;99.90;;;;;;6714526;88;20320;-76
2021/08/07 11:21:53;;;;;;;2.37;0.70;;;21.70;99.90;;;;;;6715726;88;20189;-79
2021/08/07 11:32:15;;;;;;;3.62;0.90;;;19.20;99.90;;;;;;6716589;88;20660;-76
2021/08/07 11:42:46;;;;;;;2.42;1.10;;;17.90;99.90;;;;;;6723710;88;20287;-76
2021/08/07 11:52:46;;;;;;;5.12;1.10;;;17.80;99.90;;;;;;6721137;88;20176;-77
2021/08/07 12:03:13;;;;;;;3.40;1.10;;;18.40;99.90;;;;;;6732413;88;20199;-77
2021/08/07 12:13:29;;;;;;;2.55;0.90;;;20.80;99.90;;;;;;6715932;88;20282;-78
2021/08/07 12:23:45;;;;;;;3.35;1.33;;;22.60;99.90;;;;;;6716906;88;20189;-77
2021/08/07 12:33:45;;;;;;;2.17;0.88;;;24.20;99.90;;;;;;6716056;88;20177;-77
2021/08/07 12:43:47;;;;;;;3.78;0.70;;;25.90;96.50;;;;;;6718926;88;20251;-77
2021/08/07 12:53:48;;;;;;;2.42;0.70;;;24.90;95.60;;;;;;6718086;88;20185;-78
2021/08/07 13:04:01;;;;;;;3.37;0.70;;;24.90;94.90;;;;;;6716383;88;20284;-78
2021/08/07 13:14:13;;;;;;;3.08;0.80;;;25.10;91.90;;;;;;6717151;88;20558;-77
2021/08/07 13:24:29;;;;;;;2.33;0.73;;;25.20;92.20;;;;;;6717310;88;20661;-78
2021/08/07 13:34:29;;;;;;;2.90;0.70;;;25.10;92.40;;;;;;6716928;88;20210;-78
2021/08/07 13:44:30;;;;;;;2.20;0.90;;;25.60;92.00;;;;;;6718785;88;20676;-77
2021/08/07 13:54:31;;;;;;;4.07;0.75;;;23.90;93.40;;;;;;6714351;88;20189;-77
2021/08/07 14:04:31;;;;;;;4.03;0.70;;;23.60;95.20;;;;;;6715831;88;20209;-76
2021/08/07 14:14:33;;;;;;;2.85;0.90;;;23.20;94.90;;;;;;6714148;88;20361;-75
2021/08/07 14:24:33;;;;;;;2.08;0.70;;;23.30;94.80;;;;;;6714052;88;20185;-75
2021/08/07 14:34:34;;;;;;;1.95;0.82;;;23.20;94.40;;;;;;6714775;88;20216;-76
2021/08/07 14:44:34;;;;;;;1.80;0.70;;;23.30;95.60;;;;;;6716083;88;20182;-76
2021/08/07 14:54:36;;;;;;;2.05;0.80;;;23.80;95.30;;;;;;6719640;88;20352;-75
2021/08/07 15:04:37;;;;;;;2.35;0.77;;;23.90;94.60;;;;;;6715127;88;20571;-77
2021/08/07 15:14:37;;;;;;;2.72;0.85;;;23.70;95.40;;;;;;6715868;88;20261;-77
2021/08/07 15:24:38;;;;;;;2.08;0.80;;;23.50;96.40;;;;;;6716323;88;20190;-75
2021/08/07 15:34:38;;;;;;;2.60;0.93;;;23.30;98.30;;;;;;6716316;88;20203;-77
2021/08/07 15:44:39;;;;;;;2.05;0.70;;;23.10;98.30;;;;;;6715775;88;20641;-77
2021/08/07 15:54:40;;;;;;;3.60;0.90;;;23.40;97.50;;;;;;6717720;88;20688;-77
2021/08/07 16:04:42;;;;;;;2.22;0.80;;;23.90;97.00;;;;;;6716194;88;20248;-75
2021/08/07 16:14:42;;;;;;;1.83;0.73;;;24.00;97.50;;;;;;6717303;88;20215;-77
2021/08/07 16:24:43;;;;;;;2.25;0.70;;;23.40;96.50;;;;;;6717954;88;20221;-77
2021/08/07 16:34:43;;;;;;;2.80;0.70;;;22.80;97.70;;;;;;6716189;88;20186;-75
2021/08/07 16:44:48;;;;;;;1.70;0.70;;;22.70;97.90;;;;;;6734420;88;20201;-74
2021/08/07 16:54:49;;;;;;;3.35;0.95;;;22.70;98.80;;;;;;6721257;88;20206;-75
2021/08/07 17:04:50;;;;;;;2.45;0.70;;;22.60;98.90;;;;;;6742417;88;20183;-78
2021/08/07 17:14:50;;;;;;;2.20;1.10;;;22.40;98.80;;;;;;6728804;88;20198;-76
2021/08/07 17:24:51;;;;;;;4.43;1.02;;;22.10;99.90;;;;;;6733381;88;20746;-76
2021/08/07 17:34:52;;;;;;;2.72;0.85;;;21.80;99.90;;;;;;6731999;88;20223;-77
2021/08/07 17:44:53;;;;;;;4.00;1.27;;;21.60;99.90;;;;;;6724774;88;20260;-75
2021/08/07 17:54:53;;;;;;;2.33;1.10;;;21.30;99.90;;;;;;6724551;88;20666;-75
2021/08/07 18:04:54;;;;;;;3.55;0.93;;;20.80;99.90;;;;;;6721847;88;20227;-78
2021/08/07 18:14:54;;;;;;;3.67;1.27;;;20.50;99.90;;;;;;6722919;88;20182;-78
2021/08/07 18:24:55;;;;;;;2.65;1.40;;;19.40;99.90;;;;;;6722388;88;20732;-77
2021/08/07 18:34:56;;;;;;;5.73;1.57;;;18.60;99.90;;;;;;6719211;88;20182;-76
2021/08/07 18:44:56;;;;;;;3.22;1.30;;;18.10;99.90;;;;;;6716425;88;20511;-76
2021/08/07 18:54:57;;;;;;;3.90;1.40;;;17.90;99.90;;;;;;6717123;88;20309;-77
2021/08/07 19:04:58;;;;;;;5.28;1.33;;;17.50;99.90;;;;;;6717259;88;20203;-77
2021/08/07 19:14:58;;;;;;;3.83;1.10;;;17.30;99.90;;;;;;6717981;88;20711;-77
2021/08/07 19:24:59;;;;;;;4.40;1.45;;;17.50;99.90;;;;;;6721932;88;20190;-76
2021/08/07 19:35:00;;;;;;;3.58;1.27;;;17.20;99.90;;;;;;6720106;88;20200;-76
2021/08/07 19:45:00;;;;;;;2.70;1.17;;;17.20;99.90;;;;;;6713202;88;20222;-75
2021/08/07 19:55:01;;;;;;;5.37;1.10;;;17.00;99.90;;;;;;6713329;88;20184;-76
2021/08/07 20:05:02;;;;;;;6.03;1.40;;;16.80;99.90;;;;;;6713274;88;20196;-76
2021/08/07 20:15:03;;;;;;;4.72;1.70;;;16.70;99.90;;;;;;6714407;88;20539;-76
2021/08/07 20:25:05;;;;;;;4.22;1.80;;;16.50;99.90;;;;;;6716863;88;20213;-75
2021/08/07 20:35:06;;;;;;;3.58;1.02;;;16.40;99.90;;;;;;6713660;88;20185;-75
2021/08/07 20:55:12;;;;;;;2.97;0.93;;;16.50;99.90;;;;;;6733224;88;20752;-77
2021/08/07 21:05:14;;;;;;;3.60;1.00;;;16.50;99.90;;;;;;6737657;88;20202;-77
2021/08/07 21:15:18;;;;;;;1.25;0.60;;;16.50;99.90;;;;;;6738394;88;20300;-77
2021/08/07 21:25:18;;;;;;;1.17;0.40;;;16.70;99.90;;;;;;6734693;88;20220;-78
2021/08/07 21:35:19;;;;;;;1.62;0.50;;;16.70;99.90;;;;;;6738860;88;20193;-77
2021/08/07 21:45:19;;;;;;;2.15;0.50;;;16.60;99.90;;;;;;6738621;88;20700;-77
2021/08/07 21:55:20;;;;;;;2.07;0.60;;;16.60;99.90;;;;;;6734877;88;20234;-76
2021/08/07 22:05:20;;;;;;;1.30;0.52;;;16.40;99.90;;;;;;6734254;88;22233;-76
2021/08/07 22:15:21;;;;;;;3.15;0.70;;;16.30;99.90;;;;;;6732497;88;20197;-76
2021/08/07 22:25:22;;;;;;;1.30;0.50;;;16.30;99.90;;;;;;6732720;88;20204;-76
2021/08/07 22:35:23;;;;;;;2.15;0.88;;;16.10;99.90;;;;;;6733885;88;20194;-76
2021/08/07 22:45:35;;;;;;;1.33;0.57;;;16.00;99.90;;;;;;6726564;88;20198;-76
2021/08/07 22:55:36;;;;;;;1.90;0.70;;;16.00;99.90;;;;;;6735688;88;20193;-76
2021/08/07 23:05:36;;;;;;;2.33;1.00;;;16.10;99.90;;;;;;6732819;88;20234;-76
2021/08/07 23:15:37;;;;;;;2.47;0.80;;;16.00;99.90;;;;;;6732543;88;20254;-76
2021/08/07 23:25:38;;;;;;;2.70;0.60;;;16.10;99.90;;;;;;6732559;88;20330;-77
2021/08/07 23:35:38;;;;;;;2.45;0.70;;;16.00;99.90;;;;;;6731371;88;20679;-76
2021/08/07 23:45:39;;;;;;;4.93;0.82;;;16.00;99.90;;;;;;6731838;88;20231;-77
2021/08/07 23:55:39;;;;;;;2.65;0.65;;;16.00;99.90;;;;;;6730357;88;20233;-77
